createdAt,value
2022-12-19T00:00:34.957Z,31.90
2022-12-19T00:03:22.844Z,30.80
2022-12-19T00:05:50.631Z,32.70
2022-12-19T00:08:18.499Z,33.10
2022-12-19T00:10:56.797Z,31.80
2022-12-19T00:13:25.605Z,33.60
2022-12-19T00:15:53.754Z,29.40
2022-12-19T00:18:22.193Z,34.80
2022-12-19T00:20:56.747Z,35.20
2022-12-19T00:23:25.447Z,34.70
2022-12-19T00:25:53.315Z,37.20
2022-12-19T00:28:22.207Z,35.40
2022-12-19T00:30:49.964Z,36.60
2022-12-19T00:33:19.776Z,31.20
2022-12-19T00:35:47.640Z,33.70
2022-12-19T00:38:15.302Z,27.90
2022-12-19T00:40:43.272Z,34.50
2022-12-19T00:43:11.039Z,36.00
2022-12-19T00:45:39.157Z,33.00
2022-12-19T00:48:06.866Z,35.80
2022-12-19T00:50:36.151Z,35.30
2022-12-19T00:53:03.923Z,32.80
2022-12-19T00:55:31.898Z,34.90
2022-12-19T00:58:02.334Z,32.60
2022-12-19T01:00:30.906Z,33.70
2022-12-19T01:02:58.867Z,33.60
2022-12-19T01:05:27.146Z,34.40
2022-12-19T01:07:54.959Z,32.50
2022-12-19T01:10:22.595Z,34.60
2022-12-19T01:12:50.231Z,34.60
2022-12-19T01:15:20.578Z,32.40
2022-12-19T01:17:48.737Z,32.00
2022-12-19T01:20:22.227Z,34.20
2022-12-19T01:22:58.579Z,34.00
2022-12-19T01:25:28.346Z,27.40
2022-12-19T01:27:56.992Z,33.70
2022-12-19T01:30:25.258Z,36.60
2022-12-19T01:32:53.947Z,37.10
2022-12-19T01:35:22.332Z,27.60
2022-12-19T01:37:53.975Z,33.30
2022-12-19T01:40:32.696Z,31.80
2022-12-19T01:43:01.687Z,21.10
2022-12-19T01:45:36.617Z,30.00
2022-12-19T01:51:01.283Z,29.40
2022-12-19T01:53:34.072Z,31.80
2022-12-19T01:56:09.034Z,25.90
2022-12-19T01:58:38.401Z,16.90
2022-12-19T02:01:06.201Z,32.60
2022-12-19T02:03:35.808Z,28.20
2022-12-19T02:06:05.643Z,32.90
2022-12-19T02:08:34.437Z,30.20
2022-12-19T02:11:02.757Z,30.50
2022-12-19T02:13:30.521Z,30.80
2022-12-19T02:16:17.104Z,28.70
2022-12-19T02:18:51.982Z,28.70
2022-12-19T02:21:30.297Z,32.30
2022-12-19T02:24:01.001Z,28.50
2022-12-19T02:26:47.412Z,30.20
2022-12-19T02:29:21.260Z,30.10
2022-12-19T02:31:52.075Z,29.60
2022-12-19T02:34:28.004Z,29.10
2022-12-19T02:37:00.478Z,30.80
2022-12-19T02:39:34.483Z,32.30
2022-12-19T02:42:04.054Z,26.00
2022-12-19T02:44:33.394Z,26.60
2022-12-19T02:47:03.001Z,28.30
2022-12-19T02:49:32.713Z,30.30
2022-12-19T02:52:33.140Z,27.20
2022-12-19T02:55:03.373Z,25.60
2022-12-19T02:57:31.141Z,29.50
2022-12-19T02:59:58.826Z,26.30
2022-12-19T03:02:26.575Z,29.00
2022-12-19T03:04:54.450Z,26.20
2022-12-19T03:07:44.406Z,25.00
2022-12-19T03:10:11.981Z,15.50
2022-12-19T03:12:44.183Z,30.10
2022-12-19T03:15:15.935Z,24.40
2022-12-19T03:17:43.786Z,30.00
2022-12-19T03:20:19.934Z,30.90
2022-12-19T03:22:47.682Z,22.70
2022-12-19T03:25:16.267Z,29.80
2022-12-19T03:27:46.260Z,26.00
2022-12-19T03:30:14.203Z,25.90
2022-12-19T03:32:43.838Z,24.00
2022-12-19T03:35:18.274Z,27.30
2022-12-19T03:37:47.609Z,22.90
2022-12-19T03:40:20.197Z,28.80
2022-12-19T03:43:07.876Z,26.70
2022-12-19T03:45:43.465Z,25.10
2022-12-19T03:48:21.389Z,23.50
2022-12-19T03:50:54.217Z,26.70
2022-12-19T03:53:29.331Z,25.10
2022-12-19T03:56:01.788Z,26.30
2022-12-19T03:58:34.022Z,25.80
2022-12-19T04:01:02.585Z,26.60
2022-12-19T04:03:31.774Z,26.30
2022-12-19T04:06:01.281Z,22.70
2022-12-19T04:08:30.172Z,26.60
2022-12-19T04:11:01.442Z,27.50
2022-12-19T04:13:33.685Z,24.30
2022-12-19T04:16:20.251Z,24.00
2022-12-19T04:18:51.334Z,25.80
2022-12-19T04:21:20.769Z,22.20
2022-12-19T04:23:52.862Z,23.60
2022-12-19T04:26:21.212Z,24.80
2022-12-19T04:28:50.755Z,25.70
2022-12-19T04:31:20.173Z,25.10
2022-12-19T04:33:47.805Z,23.60
2022-12-19T04:36:15.663Z,24.60
2022-12-19T04:38:43.445Z,23.70
2022-12-19T04:41:11.047Z,23.30
2022-12-19T04:43:38.688Z,25.20
2022-12-19T04:46:07.102Z,23.40
2022-12-19T04:48:35.839Z,22.70
2022-12-19T04:51:03.895Z,22.30
2022-12-19T04:53:31.856Z,22.00
2022-12-19T04:56:03.234Z,23.50
2022-12-19T04:58:31.110Z,22.00
2022-12-19T05:01:03.592Z,23.00
2022-12-19T05:03:32.079Z,23.90
2022-12-19T05:06:06.994Z,24.10
2022-12-19T05:08:35.084Z,22.60
2022-12-19T05:11:03.888Z,19.40
2022-12-19T05:13:32.924Z,22.10
2022-12-19T05:16:02.481Z,21.30
2022-12-19T05:18:30.673Z,23.20
2022-12-19T05:20:58.986Z,23.00
2022-12-19T05:23:28.093Z,21.60
2022-12-19T05:25:58.828Z,20.10
2022-12-19T05:28:26.471Z,22.50
2022-12-19T05:31:04.418Z,23.70
2022-12-19T05:33:32.273Z,23.30
2022-12-19T05:36:00.002Z,19.40
2022-12-19T05:38:28.992Z,22.70
2022-12-19T05:40:56.958Z,21.90
2022-12-19T05:43:24.725Z,24.10
2022-12-19T05:45:52.757Z,21.00
2022-12-19T05:48:20.747Z,21.90
2022-12-19T05:50:51.699Z,20.90
2022-12-19T05:53:23.343Z,22.40
2022-12-19T05:56:14.193Z,20.50
2022-12-19T05:58:42.235Z,21.30
2022-12-19T06:01:11.733Z,20.40
2022-12-19T06:03:39.901Z,21.20
2022-12-19T06:06:12.373Z,20.40
2022-12-19T06:08:40.546Z,19.50
2022-12-19T06:11:08.923Z,20.00
2022-12-19T06:13:37.196Z,20.70
2022-12-19T06:16:10.118Z,21.90
2022-12-19T06:18:42.865Z,21.70
2022-12-19T06:21:14.624Z,19.70
2022-12-19T06:23:42.700Z,21.40
2022-12-19T06:26:17.158Z,22.70
2022-12-19T06:28:47.734Z,22.50
2022-12-19T06:31:16.125Z,20.30
2022-12-19T06:33:44.701Z,21.80
2022-12-19T06:36:15.037Z,22.60
2022-12-19T06:38:42.986Z,21.80
2022-12-19T06:41:30.003Z,17.50
2022-12-19T06:43:58.581Z,20.50
2022-12-19T06:46:26.342Z,18.20
2022-12-19T06:48:54.215Z,18.40
2022-12-19T06:51:22.163Z,20.70
2022-12-19T06:53:51.514Z,21.10
2022-12-19T06:56:20.467Z,22.60
2022-12-19T06:58:48.601Z,20.80
2022-12-19T07:01:20.474Z,16.60
2022-12-19T07:03:49.295Z,21.20
2022-12-19T07:06:17.166Z,22.50
2022-12-19T07:08:45.028Z,21.50
2022-12-19T07:11:12.779Z,21.00
2022-12-19T07:13:40.544Z,19.50
2022-12-19T07:16:08.875Z,19.80
2022-12-19T07:18:38.323Z,18.50
2022-12-19T07:21:06.725Z,19.40
2022-12-19T07:23:35.551Z,19.50
2022-12-19T07:26:04.094Z,19.10
2022-12-19T07:28:33.756Z,17.00
2022-12-19T07:31:01.546Z,20.70
2022-12-19T07:33:29.288Z,18.50
2022-12-19T07:35:57.071Z,20.70
2022-12-19T07:38:24.932Z,20.30
2022-12-19T07:40:52.692Z,19.40
2022-12-19T07:43:20.726Z,19.10
2022-12-19T07:45:54.128Z,20.50
2022-12-19T07:48:22.229Z,21.60
2022-12-19T07:50:49.871Z,19.40
2022-12-19T07:53:17.637Z,20.20
2022-12-19T07:55:45.282Z,20.00
2022-12-19T07:58:14.375Z,19.80
2022-12-19T08:00:42.319Z,21.70
2022-12-19T08:03:10.350Z,19.00
2022-12-19T08:05:38.414Z,18.50
2022-12-19T08:08:06.165Z,20.20
2022-12-19T08:10:34.559Z,18.90
2022-12-19T08:13:02.351Z,17.70
2022-12-19T08:15:30.592Z,17.20
2022-12-19T08:17:58.307Z,17.50
2022-12-19T08:20:26.007Z,17.90
2022-12-19T08:22:53.781Z,18.00
2022-12-19T08:25:21.868Z,17.20
2022-12-19T08:27:49.922Z,17.00
2022-12-19T08:30:17.735Z,16.60
2022-12-19T08:32:46.881Z,15.80
2022-12-19T08:35:15.035Z,18.00
2022-12-19T08:37:43.055Z,16.10
2022-12-19T08:40:11.502Z,17.30
2022-12-19T08:42:39.192Z,15.30
2022-12-19T08:45:07.904Z,16.40
2022-12-19T08:47:36.023Z,16.30
2022-12-19T08:50:04.089Z,14.40
2022-12-19T08:52:31.899Z,18.80
2022-12-19T08:55:00.809Z,30.00
2022-12-19T08:59:54.976Z,19.60
2022-12-19T09:02:24.611Z,11.30
2022-12-19T09:06:00.452Z,14.00
2022-12-19T09:07:40.961Z,14.20
2022-12-19T09:10:09.059Z,13.60
2022-12-19T09:12:36.799Z,13.40
2022-12-19T09:15:05.560Z,12.90
2022-12-19T09:17:33.396Z,12.20
2022-12-19T09:20:01.079Z,15.50
2022-12-19T09:22:29.443Z,12.60
2022-12-19T09:24:57.653Z,13.60
2022-12-19T09:27:25.586Z,12.30
2022-12-19T09:29:53.286Z,12.40
2022-12-19T09:32:21.155Z,12.70
2022-12-19T09:34:49.016Z,11.70
2022-12-19T09:37:17.854Z,12.30
2022-12-19T09:39:46.928Z,11.50
2022-12-19T09:42:40.887Z,12.20
2022-12-19T09:45:25.641Z,13.30
2022-12-19T09:48:01.307Z,11.80
2022-12-19T09:50:33.272Z,11.60
2022-12-19T09:53:04.605Z,12.80
2022-12-19T09:55:34.608Z,12.40
2022-12-19T09:58:06.109Z,11.20
2022-12-19T10:00:36.074Z,11.30
2022-12-19T10:03:07.301Z,12.30
2022-12-19T10:06:40.705Z,11.40
2022-12-19T10:09:21.829Z,12.10
2022-12-19T10:12:39.689Z,10.80
2022-12-19T10:15:02.183Z,10.00
2022-12-19T10:17:36.708Z,11.10
2022-12-19T10:20:04.971Z,12.60
2022-12-19T10:22:32.786Z,11.50
2022-12-19T10:25:13.098Z,10.50
2022-12-19T10:27:59.599Z,11.30
2022-12-19T10:30:31.986Z,10.60
2022-12-19T10:33:05.783Z,12.10
2022-12-19T10:35:37.626Z,12.30
2022-12-19T10:38:14.946Z,12.00
2022-12-19T10:40:54.867Z,12.70
2022-12-19T10:43:33.573Z,12.40
2022-12-19T10:46:10.008Z,12.10
2022-12-19T10:48:37.849Z,11.90
2022-12-19T10:51:10.500Z,11.60
2022-12-19T10:53:38.587Z,11.60
2022-12-19T10:56:13.404Z,13.40
2022-12-19T10:58:43.531Z,15.10
2022-12-19T11:01:23.835Z,15.30
2022-12-19T11:03:53.472Z,15.40
2022-12-19T11:06:39.912Z,14.30
2022-12-19T11:09:18.318Z,15.80
2022-12-19T11:15:55.991Z,14.90
2022-12-19T11:20:56.166Z,16.60
2022-12-19T11:23:14.310Z,14.90
2022-12-19T11:28:12.682Z,14.30
2022-12-19T11:29:41.631Z,14.40
2022-12-19T11:30:43.170Z,12.90
2022-12-19T11:30:47.447Z,13.50
2022-12-19T11:34:32.471Z,12.60
2022-12-19T11:37:00.958Z,12.10
2022-12-19T11:39:28.719Z,13.20
2022-12-19T11:42:02.090Z,13.50
2022-12-19T11:44:33.867Z,13.50
2022-12-19T11:47:20.439Z,13.70
2022-12-19T11:49:51.830Z,13.10
2022-12-19T11:53:04.144Z,13.10
2022-12-19T11:55:36.187Z,11.90
2022-12-19T11:58:04.067Z,13.30
2022-12-19T12:00:32.779Z,15.50
2022-12-19T12:03:27.093Z,18.90
2022-12-19T12:05:56.656Z,15.20
2022-12-19T12:10:15.317Z,17.70
2022-12-19T12:14:24.224Z,14.90
2022-12-19T12:14:49.844Z,14.00
2022-12-19T12:31:00.177Z,17.20
2022-12-19T12:31:07.207Z,13.50
2022-12-19T12:31:21.758Z,13.60
2022-12-19T12:31:46.812Z,12.70
2022-12-19T12:31:56.215Z,12.70
2022-12-19T12:35:34.266Z,15.30
2022-12-19T12:41:06.434Z,12.50
2022-12-19T12:43:46.224Z,11.50
2022-12-19T12:46:23.110Z,12.60
2022-12-19T12:48:57.061Z,10.80
2022-12-19T12:51:26.011Z,11.10
2022-12-19T12:54:07.872Z,11.20
2022-12-19T12:56:36.361Z,11.20
2022-12-19T12:59:06.638Z,11.60
2022-12-19T13:01:40.717Z,9.90
2022-12-19T13:04:11.617Z,12.80
2022-12-19T13:07:00.920Z,11.40
2022-12-19T13:09:34.613Z,12.10
2022-12-19T13:12:43.282Z,12.70
2022-12-19T13:15:31.433Z,10.00
2022-12-19T13:18:11.595Z,12.10
2022-12-19T13:20:41.954Z,11.80
2022-12-19T13:23:35.940Z,11.70
2022-12-19T13:26:04.205Z,11.00
2022-12-19T13:28:31.864Z,10.20
2022-12-19T13:31:20.572Z,11.10
2022-12-19T13:33:52.691Z,10.30
2022-12-19T13:39:52.070Z,10.30
2022-12-19T13:40:10.981Z,10.20
2022-12-19T13:43:09.804Z,10.70
2022-12-19T13:45:41.039Z,11.30
2022-12-19T13:48:14.626Z,11.60
2022-12-19T13:50:43.717Z,10.80
2022-12-19T13:53:16.366Z,15.30
2022-12-19T13:55:44.265Z,12.10
2022-12-19T13:58:29.455Z,20.70
2022-12-19T14:01:21.028Z,11.50
2022-12-19T14:03:50.688Z,10.40
2022-12-19T14:06:24.350Z,10.70
2022-12-19T14:09:37.472Z,12.60
2022-12-19T14:13:40.675Z,12.00
2022-12-19T14:15:02.178Z,11.70
2022-12-19T14:22:07.946Z,11.10
2022-12-19T14:23:42.691Z,11.70
2022-12-19T14:28:20.370Z,12.60
2022-12-19T14:29:05.014Z,11.00
2022-12-19T14:31:34.155Z,10.80
2022-12-19T14:36:52.782Z,10.70
2022-12-19T14:39:28.867Z,11.00
2022-12-19T14:42:49.358Z,10.90
2022-12-19T14:54:11.921Z,9.80
2022-12-19T14:54:14.414Z,9.90
2022-12-19T14:54:24.629Z,11.40
2022-12-19T14:57:16.432Z,11.20
2022-12-19T15:01:10.242Z,11.20
2022-12-19T15:03:15.648Z,11.30
2022-12-19T15:05:44.256Z,12.50
2022-12-19T15:08:12.430Z,16.70
2022-12-19T15:11:09.295Z,19.80
2022-12-19T15:14:55.376Z,19.50
2022-12-19T15:16:28.526Z,15.00
2022-12-19T15:18:58.697Z,13.10
2022-12-19T15:21:27.745Z,16.30
2022-12-19T15:23:55.492Z,12.50
2022-12-19T15:26:31.485Z,14.80
2022-12-19T15:28:59.555Z,16.20
2022-12-19T15:31:36.834Z,15.70
2022-12-19T15:37:14.867Z,14.50
2022-12-19T15:39:44.714Z,13.90
2022-12-19T15:42:21.353Z,14.30
2022-12-19T15:44:49.856Z,11.10
2022-12-19T15:47:26.101Z,14.10
2022-12-19T15:49:56.224Z,15.40
2022-12-19T15:52:26.676Z,14.40
2022-12-19T15:54:58.502Z,14.10
2022-12-19T15:57:35.263Z,15.20
2022-12-19T16:00:08.000Z,16.00
2022-12-19T16:05:31.267Z,15.20
2022-12-19T16:08:01.350Z,14.40
2022-12-19T16:10:29.999Z,15.00
2022-12-19T16:12:58.609Z,14.70
2022-12-19T16:15:31.196Z,13.20
2022-12-19T16:18:00.209Z,13.90
2022-12-19T16:20:29.377Z,14.40
2022-12-19T16:22:57.138Z,15.50
2022-12-19T16:25:30.102Z,14.60
2022-12-19T16:27:59.019Z,13.10
2022-12-19T16:30:30.874Z,13.50
2022-12-19T16:32:59.104Z,12.90
2022-12-19T16:36:02.469Z,14.40
2022-12-19T16:38:16.780Z,14.20
2022-12-19T16:40:45.373Z,13.20
2022-12-19T16:43:13.357Z,14.40
2022-12-19T16:45:44.581Z,14.50
2022-12-19T16:48:20.133Z,14.00
2022-12-19T16:50:48.849Z,14.70
2022-12-19T16:53:17.498Z,13.90
2022-12-19T16:55:46.802Z,19.20
2022-12-19T16:58:19.816Z,18.00
2022-12-19T17:00:49.638Z,14.40
2022-12-19T17:03:38.613Z,14.70
2022-12-19T17:06:15.430Z,14.50
2022-12-19T17:08:44.804Z,16.60
2022-12-19T17:11:14.855Z,15.30
2022-12-19T17:13:44.137Z,14.40
2022-12-19T17:16:12.827Z,13.60
2022-12-19T17:18:43.052Z,13.90
2022-12-19T17:21:15.857Z,13.70
2022-12-19T17:23:44.229Z,14.40
2022-12-19T17:26:17.705Z,14.80
2022-12-19T17:28:49.780Z,16.40
2022-12-19T17:31:26.621Z,14.50
2022-12-19T17:33:55.577Z,13.50
2022-12-19T17:36:29.862Z,14.60
2022-12-19T17:39:01.517Z,13.60
2022-12-19T17:41:30.820Z,14.10
2022-12-19T17:43:58.987Z,14.60
2022-12-19T17:46:30.990Z,14.50
2022-12-19T17:48:59.955Z,14.10
2022-12-19T17:51:28.533Z,13.60
2022-12-19T17:53:57.700Z,14.40
2022-12-19T17:56:25.894Z,13.90
2022-12-19T17:58:56.111Z,12.90
2022-12-19T18:01:26.235Z,14.40
2022-12-19T18:03:56.839Z,13.80
2022-12-19T18:06:28.296Z,13.70
2022-12-19T18:08:58.291Z,13.60
2022-12-19T18:11:27.462Z,14.00
2022-12-19T18:13:55.922Z,14.10
2022-12-19T18:16:28.400Z,14.20
2022-12-19T18:18:57.186Z,14.70
2022-12-19T18:21:25.555Z,14.80
2022-12-19T18:23:54.538Z,14.70
2022-12-19T18:26:22.384Z,14.20
2022-12-19T18:28:50.371Z,14.50
2022-12-19T18:31:24.327Z,14.70
2022-12-19T18:33:54.725Z,14.40
2022-12-19T18:36:24.198Z,14.10
2022-12-19T18:38:52.481Z,15.50
2022-12-19T18:41:20.895Z,14.90
2022-12-19T18:43:49.228Z,14.10
2022-12-19T18:46:19.499Z,16.10
2022-12-19T18:48:47.440Z,15.80
2022-12-19T18:51:19.283Z,14.90
2022-12-19T18:53:47.867Z,15.50
2022-12-19T18:56:15.857Z,14.60
2022-12-19T18:58:43.689Z,14.50
2022-12-19T19:01:14.175Z,16.00
2022-12-19T19:03:44.949Z,14.90
2022-12-19T19:06:17.428Z,15.40
2022-12-19T19:08:48.328Z,15.00
2022-12-19T19:11:17.758Z,15.60
2022-12-19T19:13:45.691Z,16.70
2022-12-19T19:16:23.678Z,17.60
2022-12-19T19:18:53.028Z,14.50
2022-12-19T19:21:22.947Z,15.80
2022-12-19T19:23:56.343Z,16.60
2022-12-19T19:26:24.415Z,17.60
2022-12-19T19:28:52.929Z,17.00
2022-12-19T19:31:23.751Z,18.30
2022-12-19T19:34:01.010Z,16.50
2022-12-19T19:36:31.962Z,16.60
2022-12-19T19:39:00.231Z,17.20
2022-12-19T19:41:30.344Z,16.30
2022-12-19T19:44:00.306Z,16.10
2022-12-19T19:46:28.466Z,18.70
2022-12-19T19:48:57.010Z,15.80
2022-12-19T19:51:25.411Z,16.30
2022-12-19T19:53:53.864Z,15.00
2022-12-19T19:56:22.068Z,17.70
2022-12-19T19:58:49.937Z,16.00
2022-12-19T20:01:18.656Z,15.10
2022-12-19T20:03:50.031Z,15.80
2022-12-19T20:06:20.123Z,15.80
2022-12-19T20:08:48.043Z,15.50
2022-12-19T20:11:18.782Z,16.00
2022-12-19T20:13:47.675Z,15.80
2022-12-19T20:16:18.270Z,15.30
2022-12-19T20:18:47.664Z,16.60
2022-12-19T20:21:16.063Z,16.60
2022-12-19T20:23:45.897Z,16.20
2022-12-19T20:26:16.831Z,16.70
2022-12-19T20:28:49.454Z,16.60
2022-12-19T20:31:19.095Z,17.10
2022-12-19T20:33:48.930Z,16.40
2022-12-19T20:36:18.513Z,17.70
2022-12-19T20:38:47.286Z,17.40
2022-12-19T20:41:17.431Z,17.70
2022-12-19T20:43:46.106Z,17.90
2022-12-19T20:46:17.063Z,16.80
2022-12-19T20:48:47.050Z,16.70
2022-12-19T20:51:17.752Z,20.00
2022-12-19T20:53:46.479Z,17.40
2022-12-19T20:56:16.047Z,16.10
2022-12-19T20:58:44.853Z,17.00
2022-12-19T21:01:19.400Z,16.50
2022-12-19T21:03:48.992Z,14.80
2022-12-19T21:06:18.493Z,15.70
2022-12-19T21:08:47.118Z,17.60
2022-12-19T21:11:15.776Z,16.30
2022-12-19T21:13:44.340Z,17.20
2022-12-19T21:16:15.226Z,15.80
2022-12-19T21:18:45.013Z,16.30
2022-12-19T21:21:18.380Z,16.90
2022-12-19T21:23:48.602Z,16.00
2022-12-19T21:26:17.239Z,16.30
2022-12-19T21:28:46.301Z,15.80
2022-12-19T21:31:16.537Z,14.30
2022-12-19T21:33:45.411Z,16.70
2022-12-19T21:36:16.700Z,16.50
2022-12-19T21:38:47.076Z,16.20
2022-12-19T21:41:19.525Z,16.10
2022-12-19T21:43:54.563Z,15.10
2022-12-19T21:46:25.329Z,16.50
2022-12-19T21:48:56.151Z,16.70
2022-12-19T21:51:27.434Z,17.80
2022-12-19T21:54:03.564Z,18.00
2022-12-19T21:56:31.631Z,15.30
2022-12-19T21:59:02.077Z,16.00
2022-12-19T22:01:30.837Z,16.30
2022-12-19T22:04:01.638Z,16.30
2022-12-19T22:06:32.147Z,16.30
2022-12-19T22:09:00.548Z,14.90
2022-12-19T22:11:31.214Z,15.80
2022-12-19T22:14:05.237Z,15.50
2022-12-19T22:16:34.259Z,17.20
2022-12-19T22:19:03.185Z,15.40
2022-12-19T22:21:31.765Z,13.60
2022-12-19T22:24:00.451Z,14.20
2022-12-19T22:26:29.472Z,14.90
2022-12-19T22:28:58.539Z,15.20
2022-12-19T22:31:28.152Z,14.30
2022-12-19T22:34:00.912Z,15.40
2022-12-19T22:36:29.818Z,14.80
2022-12-19T22:38:58.614Z,15.20
2022-12-19T22:41:26.773Z,14.40
2022-12-19T22:43:55.537Z,15.10
2022-12-19T22:46:27.664Z,15.20
2022-12-19T22:48:56.930Z,14.10
2022-12-19T22:51:25.295Z,15.30
2022-12-19T22:53:52.985Z,14.80
2022-12-19T22:56:22.362Z,14.50
2022-12-19T22:58:51.018Z,15.50
2022-12-19T23:01:20.736Z,14.70
2022-12-19T23:03:50.997Z,14.50
2022-12-19T23:06:20.206Z,13.40
2022-12-19T23:08:48.247Z,14.80
2022-12-19T23:11:17.657Z,16.20
2022-12-19T23:13:46.042Z,14.70
2022-12-19T23:16:14.514Z,14.50
2022-12-19T23:18:42.467Z,15.30
2022-12-19T23:21:12.107Z,14.30
2022-12-19T23:23:42.493Z,14.50
2022-12-19T23:26:15.954Z,14.90
2022-12-19T23:28:45.105Z,14.90
2022-12-19T23:31:13.536Z,14.20
2022-12-19T23:33:41.437Z,15.80
2022-12-19T23:36:11.120Z,13.80
2022-12-19T23:38:39.229Z,13.90
2022-12-19T23:41:08.627Z,15.50
2022-12-19T23:43:37.389Z,15.50
2022-12-19T23:46:10.830Z,14.10
2022-12-19T23:48:39.089Z,14.80
2022-12-19T23:51:07.827Z,15.10
2022-12-19T23:53:35.648Z,15.10
2022-12-19T23:56:06.674Z,15.70
2022-12-19T23:58:34.537Z,14.20
